createdAt,value
2017-11-07T00:00:02.814Z,99698.95
2017-11-07T00:02:30.515Z,99698.25
2017-11-07T00:04:57.953Z,99701.64
2017-11-07T00:07:26.249Z,99707.83
2017-11-07T00:09:53.727Z,99703.30
2017-11-07T00:12:21.146Z,99696.87
2017-11-07T00:14:48.571Z,99673.13
2017-11-07T00:17:15.988Z,99697.34
2017-11-07T00:19:43.509Z,99697.25
2017-11-07T00:22:10.946Z,99690.84
2017-11-07T00:24:38.399Z,99685.42
2017-11-07T00:27:05.810Z,99686.95
2017-11-07T00:29:33.383Z,99681.03
2017-11-07T00:32:00.867Z,99691.48
2017-11-07T00:34:28.264Z,99683.45
2017-11-07T00:36:55.716Z,99618.73
2017-11-07T00:39:23.108Z,99686.45
2017-11-07T00:41:50.577Z,99682.66
2017-11-07T00:44:17.991Z,99662.05
2017-11-07T00:46:45.425Z,99682.83
2017-11-07T00:49:12.832Z,99679.34
2017-11-07T00:51:40.276Z,99678.52
2017-11-07T00:54:07.744Z,99653.61
2017-11-07T00:56:35.155Z,99680.13
2017-11-07T00:59:02.616Z,99674.70
2017-11-07T01:01:30.053Z,99679.72
2017-11-07T01:03:57.475Z,99679.04
2017-11-07T01:06:24.869Z,99673.41
2017-11-07T01:08:52.304Z,99682.86
2017-11-07T01:11:19.715Z,99680.03
2017-11-07T01:13:47.173Z,99680.44
2017-11-07T01:16:14.574Z,99675.51
2017-11-07T01:18:42.039Z,99673.00
2017-11-07T01:21:09.533Z,99676.61
2017-11-07T01:23:37.245Z,99656.30
2017-11-07T01:26:04.661Z,99678.09
2017-11-07T01:28:32.057Z,99664.03
2017-11-07T01:30:59.501Z,99673.88
2017-11-07T01:33:26.905Z,99673.30
2017-11-07T01:35:54.354Z,99676.11
2017-11-07T01:38:21.738Z,99668.88
2017-11-07T01:40:49.161Z,99668.86
2017-11-07T01:43:16.589Z,99661.84
2017-11-07T01:45:44.071Z,99641.94
2017-11-07T01:48:11.472Z,99662.23
2017-11-07T01:50:38.896Z,99656.13
2017-11-07T01:53:06.340Z,99653.40
2017-11-07T01:55:33.740Z,99653.80
2017-11-07T01:58:01.189Z,99634.81
2017-11-07T02:00:28.692Z,99642.02
2017-11-07T02:02:56.137Z,99643.31
2017-11-07T02:05:23.552Z,99640.31
2017-11-07T02:07:51.008Z,99645.55
2017-11-07T02:10:18.472Z,99639.00
2017-11-07T02:12:45.891Z,99633.59
2017-11-07T02:15:13.312Z,99633.48
2017-11-07T02:17:40.705Z,99629.86
2017-11-07T02:20:08.118Z,99638.42
2017-11-07T02:22:35.560Z,99631.16
2017-11-07T02:25:03.008Z,99638.13
2017-11-07T02:27:30.479Z,99639.42
2017-11-07T02:29:57.889Z,99630.88
2017-11-07T02:32:25.312Z,99624.05
2017-11-07T02:34:52.733Z,99618.01
2017-11-07T02:37:20.132Z,99620.52
2017-11-07T02:39:47.633Z,99613.89
2017-11-07T02:42:15.030Z,99604.91
2017-11-07T02:44:42.423Z,99601.02
2017-11-07T02:47:09.868Z,99600.09
2017-11-07T02:49:37.302Z,99605.64
2017-11-07T02:52:04.721Z,99604.72
2017-11-07T02:54:33.059Z,99594.17
2017-11-07T02:57:00.484Z,99601.30
2017-11-07T02:59:27.885Z,99597.09
2017-11-07T03:01:55.298Z,99595.00
2017-11-07T03:04:22.712Z,99583.34
2017-11-07T03:06:50.149Z,99576.36
2017-11-07T03:09:17.555Z,99565.44
2017-11-07T03:11:44.977Z,99563.94
2017-11-07T03:14:12.387Z,99564.28
2017-11-07T03:16:39.819Z,99561.09
2017-11-07T03:19:07.257Z,99560.30
2017-11-07T03:21:34.645Z,99562.39
2017-11-07T03:24:02.116Z,99561.58
2017-11-07T03:26:29.522Z,99555.50
2017-11-07T03:28:56.942Z,99541.98
2017-11-07T03:31:24.331Z,99541.42
2017-11-07T03:33:51.764Z,99541.16
2017-11-07T03:36:19.169Z,99537.72
2017-11-07T03:38:46.602Z,99533.34
2017-11-07T03:41:14.023Z,99533.95
2017-11-07T03:43:41.407Z,99528.98
2017-11-07T03:46:08.839Z,99534.48
2017-11-07T03:48:36.246Z,99531.58
2017-11-07T03:51:03.672Z,99536.09
2017-11-07T03:53:31.134Z,99539.78
2017-11-07T03:55:58.573Z,99534.71
2017-11-07T03:58:26.776Z,99538.06
2017-11-07T04:00:54.264Z,99537.83
2017-11-07T04:03:21.668Z,99528.94
2017-11-07T04:05:49.119Z,99533.88
2017-11-07T04:08:16.588Z,99528.91
2017-11-07T04:10:44.098Z,99536.55
2017-11-07T04:13:11.857Z,99526.33
2017-11-07T04:15:39.381Z,99523.80
2017-11-07T04:19:14.391Z,99529.20
2017-11-07T04:21:41.885Z,99527.59
2017-11-07T04:24:09.322Z,99471.25
2017-11-07T04:26:36.760Z,99523.34
2017-11-07T04:29:04.188Z,99520.95
2017-11-07T04:31:31.585Z,99519.33
2017-11-07T04:33:59.027Z,99507.27
2017-11-07T04:36:26.433Z,99518.73
2017-11-07T04:38:53.855Z,99518.55
2017-11-07T04:41:21.277Z,99518.97
2017-11-07T04:43:48.744Z,99514.97
2017-11-07T04:46:16.127Z,99512.98
2017-11-07T04:48:44.264Z,99504.77
2017-11-07T04:51:11.681Z,99509.20
2017-11-07T04:53:39.845Z,99513.08
2017-11-07T04:56:07.287Z,99512.73
2017-11-07T04:58:34.700Z,99510.99
2017-11-07T05:01:02.857Z,99508.88
2017-11-07T05:03:30.787Z,99505.95
2017-11-07T05:05:58.232Z,99506.91
2017-11-07T05:08:36.515Z,99502.34
2017-11-07T05:11:05.805Z,99499.43
2017-11-07T05:13:33.226Z,99502.53
2017-11-07T05:16:00.645Z,99497.20
2017-11-07T05:18:28.047Z,99481.22
2017-11-07T05:20:55.506Z,99493.03
2017-11-07T05:23:22.940Z,99494.73
2017-11-07T05:25:50.377Z,99488.53
2017-11-07T05:28:17.820Z,99492.38
2017-11-07T05:30:45.229Z,99490.23
2017-11-07T05:33:13.062Z,99487.46
2017-11-07T05:35:40.519Z,99487.78
2017-11-07T05:38:07.993Z,99480.42
2017-11-07T05:40:35.419Z,99483.39
2017-11-07T05:43:02.870Z,99479.31
2017-11-07T05:45:30.266Z,99478.34
2017-11-07T05:47:57.699Z,99474.67
2017-11-07T05:50:25.133Z,99478.38
2017-11-07T05:52:52.557Z,99469.28
2017-11-07T05:55:19.968Z,99466.66
2017-11-07T05:57:48.182Z,99467.30
2017-11-07T06:00:15.635Z,99462.95
2017-11-07T06:02:43.051Z,99466.11
2017-11-07T06:05:10.503Z,99462.10
2017-11-07T06:07:37.881Z,99457.26
2017-11-07T06:10:05.309Z,99456.17
2017-11-07T06:12:32.715Z,99451.99
2017-11-07T06:15:00.147Z,99456.67
2017-11-07T06:17:27.553Z,99452.39
2017-11-07T06:19:54.964Z,99452.59
2017-11-07T06:22:22.394Z,99444.66
2017-11-07T06:24:49.823Z,99462.66
2017-11-07T06:27:17.945Z,99462.42
2017-11-07T06:29:45.376Z,99459.42
2017-11-07T06:32:12.815Z,99460.13
2017-11-07T06:34:40.227Z,99459.15
2017-11-07T06:37:07.655Z,99460.61
2017-11-07T06:39:35.103Z,99461.94
2017-11-07T06:42:02.590Z,99460.03
2017-11-07T06:44:30.028Z,99456.67
2017-11-07T06:46:57.495Z,99457.98
2017-11-07T06:49:24.923Z,99460.13
2017-11-07T06:51:52.489Z,99460.14
2017-11-07T06:54:20.160Z,99459.25
2017-11-07T06:56:47.631Z,99459.25
2017-11-07T06:59:15.090Z,99451.63
2017-11-07T07:01:42.753Z,99460.95
2017-11-07T07:04:10.233Z,99457.61
2017-11-07T07:06:37.682Z,99461.53
2017-11-07T07:09:05.105Z,99462.67
2017-11-07T07:11:32.568Z,99455.95
2017-11-07T07:14:00.009Z,99463.66
2017-11-07T07:16:27.466Z,99466.30
2017-11-07T07:18:54.918Z,99463.25
2017-11-07T07:21:22.299Z,99463.05
2017-11-07T07:23:50.657Z,99456.33
2017-11-07T07:26:18.121Z,99452.38
2017-11-07T07:28:46.059Z,99439.08
2017-11-07T07:31:13.583Z,99452.22
2017-11-07T07:33:40.992Z,99444.91
2017-11-07T07:36:14.866Z,99449.18
2017-11-07T07:38:43.627Z,99448.55
2017-11-07T07:41:11.108Z,99449.12
2017-11-07T07:43:38.569Z,99450.03
2017-11-07T07:46:05.994Z,99452.31
2017-11-07T07:48:50.020Z,99451.55
2017-11-07T07:51:17.432Z,99453.13
2017-11-07T07:53:55.951Z,99452.19
2017-11-07T07:56:24.282Z,99446.87
2017-11-07T07:58:51.747Z,99442.16
2017-11-07T08:01:19.149Z,99440.44
2017-11-07T08:03:46.608Z,99439.05
2017-11-07T08:06:14.026Z,99415.31
2017-11-07T08:08:41.440Z,99429.08
2017-11-07T08:11:08.906Z,99432.34
2017-11-07T08:13:36.379Z,99432.05
2017-11-07T08:16:03.813Z,99432.05
2017-11-07T08:18:31.352Z,99427.70
2017-11-07T08:20:59.038Z,99425.08
2017-11-07T08:23:26.494Z,99428.75
2017-11-07T08:25:53.924Z,99429.28
2017-11-07T08:28:22.350Z,99427.28
2017-11-07T08:30:57.757Z,99424.97
2017-11-07T08:33:25.216Z,99421.84
2017-11-07T08:35:52.674Z,99409.86
2017-11-07T08:38:20.076Z,99398.14
2017-11-07T08:40:47.535Z,99417.74
2017-11-07T08:43:28.956Z,99416.22
2017-11-07T08:45:56.581Z,99411.36
2017-11-07T08:48:27.344Z,99402.94
2017-11-07T08:50:54.822Z,99400.48
2017-11-07T08:53:31.089Z,99395.30
2017-11-07T08:55:59.465Z,99386.42
2017-11-07T08:58:26.891Z,99388.59
2017-11-07T09:01:04.459Z,99388.59
2017-11-07T09:03:31.873Z,99384.58
2017-11-07T09:05:59.321Z,99387.38
2017-11-07T09:08:27.312Z,99384.61
2017-11-07T09:10:54.747Z,99374.20
2017-11-07T09:13:22.258Z,99379.33
2017-11-07T09:15:50.636Z,99377.88
2017-11-07T09:18:20.137Z,99375.92
2017-11-07T09:20:47.566Z,99379.22
2017-11-07T09:23:15.734Z,99372.89
2017-11-07T09:25:43.279Z,99376.30
2017-11-07T09:28:10.741Z,99376.83
2017-11-07T09:30:40.834Z,99370.26
2017-11-07T09:33:09.020Z,99364.14
2017-11-07T09:35:36.489Z,99363.20
2017-11-07T09:38:11.735Z,99346.19
2017-11-07T09:40:39.248Z,99355.52
2017-11-07T09:45:47.946Z,99345.09
2017-11-07T09:48:15.389Z,99352.93
2017-11-07T09:50:42.839Z,99346.97
2017-11-07T09:53:10.298Z,99342.21
2017-11-07T09:55:37.825Z,99336.91
2017-11-07T09:58:05.283Z,99335.89
2017-11-07T10:00:32.768Z,99332.75
2017-11-07T10:03:02.036Z,99332.41
2017-11-07T10:05:29.452Z,99341.36
2017-11-07T10:07:56.977Z,99340.30
2017-11-07T10:10:24.382Z,99332.55
2017-11-07T10:12:51.837Z,99300.92
2017-11-07T10:15:23.251Z,99323.05
2017-11-07T10:17:50.736Z,99323.48
2017-11-07T10:20:18.189Z,99324.86
2017-11-07T10:22:45.620Z,99327.94
2017-11-07T10:25:13.093Z,99321.50
2017-11-07T10:27:40.540Z,99281.06
2017-11-07T10:30:08.027Z,99323.52
2017-11-07T10:32:35.447Z,99308.43
2017-11-07T10:35:16.134Z,99311.56
2017-11-07T10:37:43.572Z,99309.48
2017-11-07T10:40:11.047Z,99313.02
2017-11-07T10:42:38.497Z,99306.47
2017-11-07T10:45:05.923Z,99301.73
2017-11-07T10:47:33.406Z,99290.44
2017-11-07T10:50:00.819Z,99285.27
2017-11-07T10:52:28.346Z,99289.66
2017-11-07T10:54:55.919Z,99283.30
2017-11-07T10:57:23.448Z,99289.41
2017-11-07T10:59:50.904Z,99289.55
2017-11-07T11:02:18.359Z,99277.98
2017-11-07T11:04:45.833Z,99279.20
2017-11-07T11:07:13.338Z,99271.55
2017-11-07T11:09:40.780Z,99276.50
2017-11-07T11:12:08.258Z,99269.52
2017-11-07T11:14:35.732Z,99254.34
2017-11-07T11:17:03.185Z,99247.23
2017-11-07T11:19:30.642Z,99259.00
2017-11-07T11:22:01.609Z,99256.64
2017-11-07T11:24:29.057Z,99247.33
2017-11-07T11:26:56.487Z,99241.36
2017-11-07T11:29:23.942Z,99253.97
2017-11-07T11:31:51.454Z,99248.23
2017-11-07T11:34:19.189Z,99238.63
2017-11-07T11:36:46.748Z,99242.64
2017-11-07T11:39:14.309Z,99232.14
2017-11-07T11:41:41.769Z,99226.10
2017-11-07T11:44:09.198Z,99218.48
2017-11-07T11:46:36.688Z,99215.30
2017-11-07T11:49:04.144Z,99204.25
2017-11-07T11:51:31.565Z,99210.73
2017-11-07T11:53:59.549Z,99205.68
2017-11-07T11:56:26.989Z,99201.17
2017-11-07T11:58:54.443Z,99196.92
2017-11-07T12:01:22.100Z,99198.72
2017-11-07T12:03:49.564Z,99191.52
2017-11-07T12:06:17.022Z,99188.88
2017-11-07T12:08:45.401Z,99179.29
2017-11-07T12:11:12.855Z,99178.56
2017-11-07T12:13:40.310Z,99179.80
2017-11-07T12:16:07.787Z,99173.84
2017-11-07T12:18:35.297Z,99168.56
2017-11-07T12:21:02.792Z,99166.80
2017-11-07T12:23:30.243Z,99165.33
2017-11-07T12:25:57.722Z,99153.46
2017-11-07T12:28:25.182Z,99152.88
2017-11-07T12:30:52.634Z,99153.55
2017-11-07T12:33:20.142Z,99156.84
2017-11-07T12:35:47.622Z,99148.56
2017-11-07T12:38:15.103Z,99142.02
2017-11-07T12:40:42.544Z,99153.80
2017-11-07T12:43:10.005Z,99157.64
2017-11-07T12:45:37.476Z,99148.85
2017-11-07T12:48:04.945Z,99150.12
2017-11-07T12:50:44.143Z,99146.70
2017-11-07T12:53:12.947Z,99141.61
2017-11-07T12:55:40.399Z,99132.78
2017-11-07T12:58:08.408Z,99138.85
2017-11-07T13:00:35.830Z,99138.42
2017-11-07T13:03:03.321Z,99142.80
2017-11-07T13:05:30.737Z,99138.55
2017-11-07T13:07:58.187Z,99133.52
2017-11-07T13:10:25.631Z,99141.57
2017-11-07T13:12:53.124Z,99143.32
2017-11-07T13:15:21.533Z,99137.16
2017-11-07T13:17:49.004Z,99135.31
2017-11-07T13:20:16.448Z,99130.16
2017-11-07T13:22:43.894Z,99135.41
2017-11-07T13:25:11.389Z,99116.61
2017-11-07T13:27:39.039Z,99137.94
2017-11-07T13:30:06.597Z,99143.10
2017-11-07T13:32:34.013Z,99140.92
2017-11-07T13:35:01.493Z,99137.80
2017-11-07T13:37:28.963Z,99138.79
2017-11-07T13:39:56.419Z,99136.22
2017-11-07T13:42:23.931Z,99135.34
2017-11-07T13:44:51.376Z,99133.78
2017-11-07T13:47:18.845Z,99130.80
2017-11-07T13:49:46.292Z,99107.33
2017-11-07T13:52:13.782Z,99122.47
2017-11-07T13:54:41.211Z,99114.67
2017-11-07T13:57:08.655Z,99115.25
2017-11-07T13:59:36.119Z,99120.77
2017-11-07T14:02:03.574Z,99113.64
2017-11-07T14:04:31.090Z,99123.09
2017-11-07T14:06:58.523Z,99114.21
2017-11-07T14:09:25.965Z,99111.25
2017-11-07T14:11:53.441Z,99107.92
2017-11-07T14:16:49.127Z,99109.09
2017-11-07T14:19:16.566Z,99101.66
2017-11-07T14:21:44.101Z,99104.23
2017-11-07T14:24:11.588Z,99093.55
2017-11-07T14:26:39.028Z,99106.61
2017-11-07T14:29:06.526Z,99102.55
2017-11-07T14:31:33.979Z,99098.22
2017-11-07T14:34:01.476Z,99102.47
2017-11-07T14:36:28.995Z,99110.38
2017-11-07T14:38:56.459Z,99106.20
2017-11-07T14:41:23.876Z,99102.80
2017-11-07T14:43:51.316Z,99106.70
2017-11-07T14:46:18.798Z,99110.86
2017-11-07T14:48:46.274Z,99099.08
2017-11-07T14:51:14.457Z,99100.95
2017-11-07T14:53:41.878Z,99095.16
2017-11-07T14:56:09.475Z,99099.16
2017-11-07T14:58:36.932Z,99084.17
2017-11-07T15:01:04.355Z,99094.92
2017-11-07T15:03:31.817Z,99080.00
2017-11-07T15:05:59.291Z,99099.66
2017-11-07T15:08:26.729Z,99096.27
2017-11-07T15:10:54.160Z,99078.39
2017-11-07T15:13:21.595Z,99088.77
2017-11-07T15:15:49.029Z,99084.30
2017-11-07T15:18:17.928Z,99085.89
2017-11-07T15:20:45.393Z,99077.97
2017-11-07T15:23:14.636Z,99065.84
2017-11-07T15:25:42.137Z,99080.26
2017-11-07T15:28:09.618Z,99062.78
2017-11-07T15:30:37.053Z,99075.38
2017-11-07T15:33:04.513Z,99082.63
2017-11-07T15:35:31.942Z,99080.13
2017-11-07T15:37:59.376Z,99079.53
2017-11-07T15:40:26.866Z,99081.51
2017-11-07T15:42:54.307Z,99080.97
2017-11-07T15:45:21.782Z,99081.22
2017-11-07T15:47:49.215Z,99072.91
2017-11-07T15:50:16.656Z,99062.75
2017-11-07T15:52:44.169Z,99062.78
2017-11-07T15:55:11.613Z,99056.59
2017-11-07T15:57:39.036Z,99059.12
2017-11-07T16:00:06.567Z,99060.27
2017-11-07T16:02:34.038Z,99053.05
2017-11-07T16:05:01.514Z,99063.04
2017-11-07T16:07:29.677Z,99067.34
2017-11-07T16:09:57.452Z,99067.05
2017-11-07T16:12:24.944Z,99064.44
2017-11-07T16:14:52.463Z,99069.65
2017-11-07T16:17:20.862Z,99065.81
2017-11-07T16:19:48.325Z,99066.59
2017-11-07T16:22:15.781Z,99072.86
2017-11-07T16:24:43.280Z,99072.34
2017-11-07T16:27:11.691Z,99069.48
2017-11-07T16:29:39.221Z,99074.55
2017-11-07T16:32:06.743Z,99071.71
2017-11-07T16:34:34.183Z,99069.16
2017-11-07T16:37:01.693Z,99065.06
2017-11-07T16:39:29.209Z,99067.45
2017-11-07T16:41:56.700Z,99058.45
2017-11-07T16:44:24.128Z,99057.91
2017-11-07T16:46:51.573Z,99062.13
2017-11-07T16:49:19.074Z,99065.96
2017-11-07T16:51:46.527Z,99067.28
2017-11-07T16:54:13.979Z,99069.92
2017-11-07T16:56:41.397Z,99072.52
2017-11-07T16:59:10.123Z,99062.67
2017-11-07T17:01:37.653Z,99062.78
2017-11-07T17:04:05.133Z,99060.15
2017-11-07T17:06:32.626Z,99062.58
2017-11-07T17:09:00.142Z,99056.45
2017-11-07T17:11:27.551Z,99054.91
2017-11-07T17:13:55.024Z,99057.51
2017-11-07T17:16:22.517Z,99059.94
2017-11-07T17:18:49.922Z,99054.33
2017-11-07T17:21:18.531Z,99052.12
2017-11-07T17:23:45.949Z,99058.45
2017-11-07T17:26:13.389Z,99055.05
2017-11-07T17:28:40.796Z,99048.31
2017-11-07T17:31:08.262Z,99048.85
2017-11-07T17:33:35.705Z,99047.80
2017-11-07T17:36:03.110Z,99050.22
2017-11-07T17:38:30.615Z,99059.39
2017-11-07T17:40:58.023Z,99049.89
2017-11-07T17:43:25.451Z,99057.30
2017-11-07T17:45:52.862Z,99054.57
2017-11-07T17:48:20.276Z,99031.11
2017-11-07T17:50:47.720Z,99055.13
2017-11-07T17:53:15.167Z,99052.12
2017-11-07T17:55:42.636Z,99055.72
2017-11-07T17:58:10.063Z,99046.96
2017-11-07T18:00:37.573Z,99051.25
2017-11-07T18:03:05.021Z,99054.39
2017-11-07T18:05:32.515Z,99045.75
2017-11-07T18:08:00.048Z,99038.53
2017-11-07T18:10:27.504Z,99041.35
2017-11-07T18:12:55.144Z,99042.44
2017-11-07T18:15:23.356Z,99043.02
2017-11-07T18:17:50.797Z,99015.09
2017-11-07T18:20:18.246Z,99040.13
2017-11-07T18:22:45.697Z,99047.31
2017-11-07T18:25:13.195Z,99043.27
2017-11-07T18:27:40.628Z,99039.34
2017-11-07T18:30:08.117Z,99042.55
2017-11-07T18:32:35.582Z,99039.25
2017-11-07T18:35:03.039Z,99039.59
2017-11-07T18:37:30.434Z,99036.17
2017-11-07T18:39:58.007Z,99030.52
2017-11-07T18:42:26.285Z,99027.66
2017-11-07T18:44:53.737Z,99034.41
2017-11-07T18:47:21.229Z,99032.67
2017-11-07T18:49:48.717Z,99029.28
2017-11-07T18:52:16.149Z,99030.92
2017-11-07T18:54:43.644Z,99036.16
2017-11-07T18:57:11.096Z,99025.20
2017-11-07T18:59:38.579Z,99026.25
2017-11-07T19:02:06.035Z,99024.41
2017-11-07T19:04:33.465Z,99025.40
2017-11-07T19:07:00.927Z,99027.40
2017-11-07T19:09:28.377Z,99025.89
2017-11-07T19:11:55.785Z,99019.65
2017-11-07T19:14:23.242Z,99025.06
2017-11-07T19:16:50.668Z,99020.65
2017-11-07T19:19:18.136Z,99015.55
2017-11-07T19:21:45.601Z,99018.55
2017-11-07T19:24:13.048Z,99021.05
2017-11-07T19:26:40.445Z,99022.73
2017-11-07T19:29:07.883Z,99017.72
2017-11-07T19:31:36.124Z,99012.48
2017-11-07T19:34:03.567Z,99014.38
2017-11-07T19:36:30.993Z,99007.73
2017-11-07T19:38:58.424Z,99011.17
2017-11-07T19:41:25.852Z,99004.75
2017-11-07T19:43:53.294Z,99007.91
2017-11-07T19:46:20.721Z,99003.41
2017-11-07T19:48:48.146Z,99006.22
2017-11-07T19:51:15.572Z,99004.90
2017-11-07T19:53:42.966Z,98995.77
2017-11-07T19:56:10.409Z,99003.75
2017-11-07T19:58:37.829Z,99005.76
2017-11-07T20:01:05.255Z,99005.59
2017-11-07T20:03:32.656Z,99012.14
2017-11-07T20:06:00.085Z,99007.66
2017-11-07T20:08:27.531Z,99008.48
2017-11-07T20:10:54.980Z,99001.45
2017-11-07T20:13:22.417Z,99000.66
2017-11-07T20:15:49.828Z,99006.29
2017-11-07T20:18:17.273Z,98994.77
2017-11-07T20:20:44.676Z,98989.34
2017-11-07T20:23:12.198Z,98984.39
2017-11-07T20:25:40.585Z,98978.80
2017-11-07T20:28:08.054Z,98984.14
2017-11-07T20:30:35.458Z,98972.80
2017-11-07T20:33:03.708Z,98978.64
2017-11-07T20:35:31.181Z,98975.44
2017-11-07T20:37:59.725Z,98975.72
2017-11-07T20:40:27.428Z,98978.56
2017-11-07T20:42:54.828Z,98976.44
2017-11-07T20:45:23.209Z,98976.28
2017-11-07T20:47:50.615Z,98976.19
2017-11-07T20:50:18.051Z,98970.57
2017-11-07T20:52:45.514Z,98970.73
2017-11-07T20:55:12.950Z,98964.81
2017-11-07T20:57:40.385Z,98971.77
2017-11-07T21:00:08.723Z,98972.19
2017-11-07T21:02:36.156Z,98975.52
2017-11-07T21:05:03.696Z,98966.63
2017-11-07T21:07:31.143Z,98966.53
2017-11-07T21:09:58.558Z,98961.67
2017-11-07T21:12:25.976Z,98957.48
2017-11-07T21:14:53.395Z,98953.97
2017-11-07T21:17:20.878Z,98952.19
2017-11-07T21:19:48.306Z,98948.73
2017-11-07T21:22:15.872Z,98949.42
2017-11-07T21:24:43.300Z,98949.33
2017-11-07T21:27:10.788Z,98940.85
2017-11-07T21:29:38.240Z,98945.86
2017-11-07T21:32:05.688Z,98944.80
2017-11-07T21:34:33.153Z,98937.13
2017-11-07T21:37:00.618Z,98914.39
2017-11-07T21:39:28.070Z,98932.28
2017-11-07T21:41:55.494Z,98925.27
2017-11-07T21:44:22.934Z,98923.16
2017-11-07T21:46:50.336Z,98922.33
2017-11-07T21:49:17.808Z,98916.95
2017-11-07T21:51:45.220Z,98918.28
2017-11-07T21:54:12.696Z,98926.59
2017-11-07T21:56:40.092Z,98914.84
2017-11-07T21:59:07.538Z,98918.77
2017-11-07T22:01:34.949Z,98914.10
2017-11-07T22:04:02.395Z,98919.77
2017-11-07T22:06:29.803Z,98922.02
2017-11-07T22:08:57.268Z,98910.88
2017-11-07T22:11:24.702Z,98914.69
2017-11-07T22:13:52.099Z,98911.94
2017-11-07T22:16:19.555Z,98909.30
2017-11-07T22:18:46.967Z,98915.09
2017-11-07T22:21:14.421Z,98916.34
2017-11-07T22:23:41.838Z,98914.92
2017-11-07T22:26:09.319Z,98912.71
2017-11-07T22:28:36.719Z,98908.66
2017-11-07T22:31:04.182Z,98913.52
2017-11-07T22:33:31.593Z,98905.78
2017-11-07T22:35:59.036Z,98910.85
2017-11-07T22:38:26.487Z,98909.92
2017-11-07T22:40:53.883Z,98905.73
2017-11-07T22:43:21.325Z,98900.00
2017-11-07T22:45:48.740Z,98898.77
2017-11-07T22:48:17.070Z,98901.42
2017-11-07T22:50:44.477Z,98900.34
2017-11-07T22:53:11.895Z,98895.19
2017-11-07T22:55:39.349Z,98899.45
2017-11-07T22:58:06.807Z,98891.60
2017-11-07T23:00:34.215Z,98892.30
2017-11-07T23:03:01.702Z,98894.27
2017-11-07T23:05:29.111Z,98885.43
2017-11-07T23:07:56.522Z,98887.38
2017-11-07T23:10:23.969Z,98883.30
2017-11-07T23:12:51.362Z,98885.28
2017-11-07T23:15:18.812Z,98882.42
2017-11-07T23:17:46.275Z,98878.41
2017-11-07T23:20:13.709Z,98888.13
2017-11-07T23:22:41.131Z,98893.16
2017-11-07T23:25:08.624Z,98885.50
2017-11-07T23:27:36.045Z,98888.37
2017-11-07T23:30:03.521Z,98883.11
2017-11-07T23:32:30.913Z,98858.36
2017-11-07T23:34:58.354Z,98875.16
2017-11-07T23:37:25.772Z,98868.70
2017-11-07T23:39:53.164Z,98870.72
2017-11-07T23:42:20.707Z,98873.22
2017-11-07T23:44:48.104Z,98869.15
2017-11-07T23:47:15.544Z,98868.75
2017-11-07T23:49:42.964Z,98874.36
2017-11-07T23:52:10.400Z,98865.00
2017-11-07T23:54:37.798Z,98863.14
2017-11-07T23:57:05.235Z,98859.14
2017-11-07T23:59:32.681Z,98860.48
